sensor_id;sensor_type;location;lat;lon;timestamp;temperature;humidity
11079;DHT22;5592;49.234;7.268;2023-05-23T00:01:41;13.30;99.90
11079;DHT22;5592;49.234;7.268;2023-05-23T00:04:07;13.30;99.90
11079;DHT22;5592;49.234;7.268;2023-05-23T00:06:34;13.30;99.90
11079;DHT22;5592;49.234;7.268;2023-05-23T00:09:01;13.40;99.90
11079;DHT22;5592;49.234;7.268;2023-05-23T00:11:26;13.40;99.90
11079;DHT22;5592;49.234;7.268;2023-05-23T00:13:53;13.30;99.90
11079;DHT22;5592;49.234;7.268;2023-05-23T00:16:20;13.30;99.90
11079;DHT22;5592;49.234;7.268;2023-05-23T00:18:45;13.30;99.90
11079;DHT22;5592;49.234;7.268;2023-05-23T00:21:11;13.30;99.90
11079;DHT22;5592;49.234;7.268;2023-05-23T00:23:40;13.30;99.90
11079;DHT22;5592;49.234;7.268;2023-05-23T00:26:09;13.30;99.90
11079;DHT22;5592;49.234;7.268;2023-05-23T00:28:36;13.30;99.90
11079;DHT22;5592;49.234;7.268;2023-05-23T00:31:01;13.30;99.90
11079;DHT22;5592;49.234;7.268;2023-05-23T00:33:27;13.30;99.90
11079;DHT22;5592;49.234;7.268;2023-05-23T00:35:54;13.30;99.90
11079;DHT22;5592;49.234;7.268;2023-05-23T00:38:19;13.30;99.90
11079;DHT22;5592;49.234;7.268;2023-05-23T00:40:46;13.40;99.90
11079;DHT22;5592;49.234;7.268;2023-05-23T00:43:12;13.40;99.90
11079;DHT22;5592;49.234;7.268;2023-05-23T00:45:38;13.40;99.90
11079;DHT22;5592;49.234;7.268;2023-05-23T00:48:04;13.40;99.90
11079;DHT22;5592;49.234;7.268;2023-05-23T00:50:30;13.40;99.90
11079;DHT22;5592;49.234;7.268;2023-05-23T00:52:56;13.30;99.90
11079;DHT22;5592;49.234;7.268;2023-05-23T00:55:24;13.30;99.90
11079;DHT22;5592;49.234;7.268;2023-05-23T00:57:51;13.30;99.90
11079;DHT22;5592;49.234;7.268;2023-05-23T01:00:19;13.30;99.90
11079;DHT22;5592;49.234;7.268;2023-05-23T01:02:46;13.30;99.90
11079;DHT22;5592;49.234;7.268;2023-05-23T01:05:16;13.30;99.90
11079;DHT22;5592;49.234;7.268;2023-05-23T01:07:47;13.30;99.90
11079;DHT22;5592;49.234;7.268;2023-05-23T01:10:20;13.30;99.90
11079;DHT22;5592;49.234;7.268;2023-05-23T01:15:37;13.20;99.90
11079;DHT22;5592;49.234;7.268;2023-05-23T01:18:15;13.20;99.90
11079;DHT22;5592;49.234;7.268;2023-05-23T01:20:49;13.20;99.90
11079;DHT22;5592;49.234;7.268;2023-05-23T01:23:24;13.10;99.90
11079;DHT22;5592;49.234;7.268;2023-05-23T01:26:03;13.10;99.90
11079;DHT22;5592;49.234;7.268;2023-05-23T01:28:45;13.10;99.90
11079;DHT22;5592;49.234;7.268;2023-05-23T01:31:11;13.10;99.90
11079;DHT22;5592;49.234;7.268;2023-05-23T01:33:39;13.10;99.90
11079;DHT22;5592;49.234;7.268;2023-05-23T01:36:05;13.10;99.90
11079;DHT22;5592;49.234;7.268;2023-05-23T01:38:31;13.10;99.90
11079;DHT22;5592;49.234;7.268;2023-05-23T01:40:58;13.10;99.90
11079;DHT22;5592;49.234;7.268;2023-05-23T01:43:24;13.10;99.90
11079;DHT22;5592;49.234;7.268;2023-05-23T01:45:52;13.10;99.90
11079;DHT22;5592;49.234;7.268;2023-05-23T01:48:18;13.10;99.90
11079;DHT22;5592;49.234;7.268;2023-05-23T01:50:45;13.00;99.90
11079;DHT22;5592;49.234;7.268;2023-05-23T01:53:11;13.10;99.90
11079;DHT22;5592;49.234;7.268;2023-05-23T01:55:39;13.00;99.90
11079;DHT22;5592;49.234;7.268;2023-05-23T01:58:05;13.00;99.90
11079;DHT22;5592;49.234;7.268;2023-05-23T02:00:31;13.00;99.90
11079;DHT22;5592;49.234;7.268;2023-05-23T02:02:57;13.00;99.90
11079;DHT22;5592;49.234;7.268;2023-05-23T02:05:23;13.00;99.90
11079;DHT22;5592;49.234;7.268;2023-05-23T02:07:52;12.90;99.90
11079;DHT22;5592;49.234;7.268;2023-05-23T02:10:18;12.90;99.90
11079;DHT22;5592;49.234;7.268;2023-05-23T02:12:44;12.90;99.90
11079;DHT22;5592;49.234;7.268;2023-05-23T02:15:10;12.80;99.90
11079;DHT22;5592;49.234;7.268;2023-05-23T02:17:35;12.80;99.90
11079;DHT22;5592;49.234;7.268;2023-05-23T02:20:03;12.70;99.90
11079;DHT22;5592;49.234;7.268;2023-05-23T02:22:29;12.70;99.90
11079;DHT22;5592;49.234;7.268;2023-05-23T02:24:55;12.70;99.90
11079;DHT22;5592;49.234;7.268;2023-05-23T02:27:20;12.60;99.90
11079;DHT22;5592;49.234;7.268;2023-05-23T02:29:46;12.70;99.90
11079;DHT22;5592;49.234;7.268;2023-05-23T02:32:11;12.70;99.90
11079;DHT22;5592;49.234;7.268;2023-05-23T02:34:37;12.70;99.90
11079;DHT22;5592;49.234;7.268;2023-05-23T02:37:03;12.60;99.90
11079;DHT22;5592;49.234;7.268;2023-05-23T02:39:28;12.60;99.90
11079;DHT22;5592;49.234;7.268;2023-05-23T02:41:54;12.70;99.90
11079;DHT22;5592;49.234;7.268;2023-05-23T02:44:20;12.70;99.90
11079;DHT22;5592;49.234;7.268;2023-05-23T02:46:46;12.80;99.90
11079;DHT22;5592;49.234;7.268;2023-05-23T02:49:11;12.80;99.90
11079;DHT22;5592;49.234;7.268;2023-05-23T02:51:37;12.70;99.90
11079;DHT22;5592;49.234;7.268;2023-05-23T02:54:02;12.70;99.90
11079;DHT22;5592;49.234;7.268;2023-05-23T02:56:28;12.60;99.90
11079;DHT22;5592;49.234;7.268;2023-05-23T02:58:54;12.50;99.90
11079;DHT22;5592;49.234;7.268;2023-05-23T03:01:19;12.40;99.90
11079;DHT22;5592;49.234;7.268;2023-05-23T03:03:45;12.30;99.90
11079;DHT22;5592;49.234;7.268;2023-05-23T03:06:11;12.20;99.90
11079;DHT22;5592;49.234;7.268;2023-05-23T03:08:42;12.20;99.90
11079;DHT22;5592;49.234;7.268;2023-05-23T03:11:07;12.10;99.90
11079;DHT22;5592;49.234;7.268;2023-05-23T03:13:34;12.10;99.90
11079;DHT22;5592;49.234;7.268;2023-05-23T03:15:59;12.00;99.90
11079;DHT22;5592;49.234;7.268;2023-05-23T03:18:25;12.00;99.90
11079;DHT22;5592;49.234;7.268;2023-05-23T03:20:51;11.90;99.90
11079;DHT22;5592;49.234;7.268;2023-05-23T03:23:16;11.90;99.90
11079;DHT22;5592;49.234;7.268;2023-05-23T03:25:42;11.90;99.90
11079;DHT22;5592;49.234;7.268;2023-05-23T03:28:07;11.80;99.90
11079;DHT22;5592;49.234;7.268;2023-05-23T03:30:33;11.70;99.90
11079;DHT22;5592;49.234;7.268;2023-05-23T03:32:59;11.70;99.90
11079;DHT22;5592;49.234;7.268;2023-05-23T03:35:26;11.60;99.90
11079;DHT22;5592;49.234;7.268;2023-05-23T03:37:52;11.50;99.90
11079;DHT22;5592;49.234;7.268;2023-05-23T03:40:17;11.60;99.90
11079;DHT22;5592;49.234;7.268;2023-05-23T03:42:43;11.50;99.90
11079;DHT22;5592;49.234;7.268;2023-05-23T03:45:09;11.40;99.90
11079;DHT22;5592;49.234;7.268;2023-05-23T03:47:34;11.40;99.90
11079;DHT22;5592;49.234;7.268;2023-05-23T03:50:00;11.30;99.90
11079;DHT22;5592;49.234;7.268;2023-05-23T03:52:26;11.40;99.90
11079;DHT22;5592;49.234;7.268;2023-05-23T03:54:54;11.40;99.90
11079;DHT22;5592;49.234;7.268;2023-05-23T03:57:20;11.30;99.90
11079;DHT22;5592;49.234;7.268;2023-05-23T03:59:45;11.40;99.90
11079;DHT22;5592;49.234;7.268;2023-05-23T04:02:11;11.50;99.90
11079;DHT22;5592;49.234;7.268;2023-05-23T04:04:37;11.60;99.90
11079;DHT22;5592;49.234;7.268;2023-05-23T04:07:04;11.60;99.90
11079;DHT22;5592;49.234;7.268;2023-05-23T04:09:29;11.60;99.90
11079;DHT22;5592;49.234;7.268;2023-05-23T04:11:57;11.60;99.90
11079;DHT22;5592;49.234;7.268;2023-05-23T04:14:22;11.60;99.90
11079;DHT22;5592;49.234;7.268;2023-05-23T04:16:51;11.70;99.90
11079;DHT22;5592;49.234;7.268;2023-05-23T04:19:18;11.80;99.90
11079;DHT22;5592;49.234;7.268;2023-05-23T04:21:43;12.00;99.90
11079;DHT22;5592;49.234;7.268;2023-05-23T04:24:09;12.10;99.90
11079;DHT22;5592;49.234;7.268;2023-05-23T04:26:35;12.20;99.90
11079;DHT22;5592;49.234;7.268;2023-05-23T04:29:02;12.30;99.90
11079;DHT22;5592;49.234;7.268;2023-05-23T04:31:27;12.40;99.90
11079;DHT22;5592;49.234;7.268;2023-05-23T04:33:53;12.50;99.90
11079;DHT22;5592;49.234;7.268;2023-05-23T04:36:19;12.70;99.90
11079;DHT22;5592;49.234;7.268;2023-05-23T04:38:44;12.80;99.90
11079;DHT22;5592;49.234;7.268;2023-05-23T04:41:10;13.00;99.90
11079;DHT22;5592;49.234;7.268;2023-05-23T04:43:35;13.20;99.90
11079;DHT22;5592;49.234;7.268;2023-05-23T04:46:10;13.40;99.90
11079;DHT22;5592;49.234;7.268;2023-05-23T04:48:38;13.50;99.90
11079;DHT22;5592;49.234;7.268;2023-05-23T04:51:03;13.50;99.90
11079;DHT22;5592;49.234;7.268;2023-05-23T04:53:33;13.50;99.90
11079;DHT22;5592;49.234;7.268;2023-05-23T04:55:59;13.60;99.90
11079;DHT22;5592;49.234;7.268;2023-05-23T04:58:25;13.80;99.90
11079;DHT22;5592;49.234;7.268;2023-05-23T05:00:50;14.00;99.90
11079;DHT22;5592;49.234;7.268;2023-05-23T05:03:16;14.30;99.90
11079;DHT22;5592;49.234;7.268;2023-05-23T05:05:42;14.70;99.90
11079;DHT22;5592;49.234;7.268;2023-05-23T05:08:07;15.00;99.90
11079;DHT22;5592;49.234;7.268;2023-05-23T05:10:33;15.30;99.90
11079;DHT22;5592;49.234;7.268;2023-05-23T05:12:58;15.50;99.90
11079;DHT22;5592;49.234;7.268;2023-05-23T05:15:24;15.70;99.90
11079;DHT22;5592;49.234;7.268;2023-05-23T05:17:50;15.90;99.90
11079;DHT22;5592;49.234;7.268;2023-05-23T05:20:15;16.20;99.90
11079;DHT22;5592;49.234;7.268;2023-05-23T05:22:41;16.50;99.90
11079;DHT22;5592;49.234;7.268;2023-05-23T05:25:09;17.20;99.90
11079;DHT22;5592;49.234;7.268;2023-05-23T05:27:35;17.90;99.90
11079;DHT22;5592;49.234;7.268;2023-05-23T05:30:06;18.40;99.90
11079;DHT22;5592;49.234;7.268;2023-05-23T05:32:33;18.90;99.90
11079;DHT22;5592;49.234;7.268;2023-05-23T05:34:59;19.00;99.90
11079;DHT22;5592;49.234;7.268;2023-05-23T05:37:25;18.80;99.90
11079;DHT22;5592;49.234;7.268;2023-05-23T05:39:51;18.50;99.90
11079;DHT22;5592;49.234;7.268;2023-05-23T05:42:19;18.10;99.90
11079;DHT22;5592;49.234;7.268;2023-05-23T05:44:45;17.80;99.90
11079;DHT22;5592;49.234;7.268;2023-05-23T05:47:11;17.70;99.90
11079;DHT22;5592;49.234;7.268;2023-05-23T05:49:37;17.50;99.90
11079;DHT22;5592;49.234;7.268;2023-05-23T05:52:03;17.30;99.90
11079;DHT22;5592;49.234;7.268;2023-05-23T05:54:29;17.20;99.90
11079;DHT22;5592;49.234;7.268;2023-05-23T05:56:55;17.20;99.90
11079;DHT22;5592;49.234;7.268;2023-05-23T05:59:20;17.20;99.90
11079;DHT22;5592;49.234;7.268;2023-05-23T06:01:46;17.20;99.90
11079;DHT22;5592;49.234;7.268;2023-05-23T06:04:11;17.10;99.90
11079;DHT22;5592;49.234;7.268;2023-05-23T06:06:38;17.00;99.90
11079;DHT22;5592;49.234;7.268;2023-05-23T06:09:03;17.00;99.90
11079;DHT22;5592;49.234;7.268;2023-05-23T06:11:29;17.00;99.90
11079;DHT22;5592;49.234;7.268;2023-05-23T06:13:55;17.10;99.90
11079;DHT22;5592;49.234;7.268;2023-05-23T06:16:20;17.30;99.90
11079;DHT22;5592;49.234;7.268;2023-05-23T06:18:46;17.50;99.90
11079;DHT22;5592;49.234;7.268;2023-05-23T06:21:11;17.70;99.90
11079;DHT22;5592;49.234;7.268;2023-05-23T06:23:37;18.00;99.90
11079;DHT22;5592;49.234;7.268;2023-05-23T06:26:07;18.30;99.90
11079;DHT22;5592;49.234;7.268;2023-05-23T06:28:42;18.60;99.90
11079;DHT22;5592;49.234;7.268;2023-05-23T06:31:17;19.00;99.90
11079;DHT22;5592;49.234;7.268;2023-05-23T06:33:50;19.30;99.90
11079;DHT22;5592;49.234;7.268;2023-05-23T06:36:22;19.50;99.90
11079;DHT22;5592;49.234;7.268;2023-05-23T06:38:55;19.80;99.90
11079;DHT22;5592;49.234;7.268;2023-05-23T06:41:22;20.10;99.90
11079;DHT22;5592;49.234;7.268;2023-05-23T06:43:48;20.20;99.90
11079;DHT22;5592;49.234;7.268;2023-05-23T06:46:15;20.20;99.90
11079;DHT22;5592;49.234;7.268;2023-05-23T06:48:42;20.20;99.90
11079;DHT22;5592;49.234;7.268;2023-05-23T06:51:09;20.10;99.90
11079;DHT22;5592;49.234;7.268;2023-05-23T06:53:35;19.90;99.90
11079;DHT22;5592;49.234;7.268;2023-05-23T06:56:03;19.70;99.90
11079;DHT22;5592;49.234;7.268;2023-05-23T06:58:29;19.50;99.90
11079;DHT22;5592;49.234;7.268;2023-05-23T07:00:55;19.40;99.90
11079;DHT22;5592;49.234;7.268;2023-05-23T07:03:25;19.30;99.90
11079;DHT22;5592;49.234;7.268;2023-05-23T07:05:51;19.20;99.90
11079;DHT22;5592;49.234;7.268;2023-05-23T07:08:17;19.30;99.90
11079;DHT22;5592;49.234;7.268;2023-05-23T07:10:43;19.20;99.90
11079;DHT22;5592;49.234;7.268;2023-05-23T07:13:19;18.90;99.90
11079;DHT22;5592;49.234;7.268;2023-05-23T07:15:46;18.90;99.90
11079;DHT22;5592;49.234;7.268;2023-05-23T07:18:13;18.80;99.90
11079;DHT22;5592;49.234;7.268;2023-05-23T07:20:39;18.90;99.90
11079;DHT22;5592;49.234;7.268;2023-05-23T07:23:04;19.00;99.90
11079;DHT22;5592;49.234;7.268;2023-05-23T07:25:30;18.90;99.90
11079;DHT22;5592;49.234;7.268;2023-05-23T07:27:55;18.90;99.90
11079;DHT22;5592;49.234;7.268;2023-05-23T07:30:21;19.00;99.90
11079;DHT22;5592;49.234;7.268;2023-05-23T07:32:47;19.00;99.90
11079;DHT22;5592;49.234;7.268;2023-05-23T07:35:14;19.00;99.90
11079;DHT22;5592;49.234;7.268;2023-05-23T07:37:40;19.10;99.90
11079;DHT22;5592;49.234;7.268;2023-05-23T07:40:06;19.10;99.90
11079;DHT22;5592;49.234;7.268;2023-05-23T07:42:35;19.10;99.90
11079;DHT22;5592;49.234;7.268;2023-05-23T07:45:02;19.00;99.90
11079;DHT22;5592;49.234;7.268;2023-05-23T07:47:28;18.90;99.90
11079;DHT22;5592;49.234;7.268;2023-05-23T07:49:53;18.80;99.90
11079;DHT22;5592;49.234;7.268;2023-05-23T07:52:19;18.70;99.90
11079;DHT22;5592;49.234;7.268;2023-05-23T07:54:45;18.50;99.90
11079;DHT22;5592;49.234;7.268;2023-05-23T07:57:11;18.30;99.90
11079;DHT22;5592;49.234;7.268;2023-05-23T07:59:37;18.10;99.90
11079;DHT22;5592;49.234;7.268;2023-05-23T08:02:03;18.00;99.90
11079;DHT22;5592;49.234;7.268;2023-05-23T08:04:29;17.80;99.90
11079;DHT22;5592;49.234;7.268;2023-05-23T08:06:55;17.80;99.90
11079;DHT22;5592;49.234;7.268;2023-05-23T08:09:22;17.70;99.90
11079;DHT22;5592;49.234;7.268;2023-05-23T08:11:48;17.60;99.90
11079;DHT22;5592;49.234;7.268;2023-05-23T08:14:13;17.70;99.90
11079;DHT22;5592;49.234;7.268;2023-05-23T08:16:39;17.90;99.90
11079;DHT22;5592;49.234;7.268;2023-05-23T08:19:05;18.00;99.90
11079;DHT22;5592;49.234;7.268;2023-05-23T08:21:30;18.20;99.90
11079;DHT22;5592;49.234;7.268;2023-05-23T08:23:58;18.40;99.90
11079;DHT22;5592;49.234;7.268;2023-05-23T08:26:24;18.50;99.90
11079;DHT22;5592;49.234;7.268;2023-05-23T08:28:51;18.70;99.90
11079;DHT22;5592;49.234;7.268;2023-05-23T08:31:17;18.90;99.90
11079;DHT22;5592;49.234;7.268;2023-05-23T08:33:43;19.20;99.90
11079;DHT22;5592;49.234;7.268;2023-05-23T08:36:09;19.30;99.90
11079;DHT22;5592;49.234;7.268;2023-05-23T08:38:35;19.50;99.90
11079;DHT22;5592;49.234;7.268;2023-05-23T08:41:01;19.50;99.90
11079;DHT22;5592;49.234;7.268;2023-05-23T08:43:28;19.60;99.90
11079;DHT22;5592;49.234;7.268;2023-05-23T08:45:54;19.90;99.90
11079;DHT22;5592;49.234;7.268;2023-05-23T08:48:20;20.30;99.90
11079;DHT22;5592;49.234;7.268;2023-05-23T08:50:47;20.60;99.90
11079;DHT22;5592;49.234;7.268;2023-05-23T08:53:17;20.70;99.90
11079;DHT22;5592;49.234;7.268;2023-05-23T08:55:48;20.90;99.90
11079;DHT22;5592;49.234;7.268;2023-05-23T08:58:17;20.80;99.90
11079;DHT22;5592;49.234;7.268;2023-05-23T09:00:46;20.70;99.90
11079;DHT22;5592;49.234;7.268;2023-05-23T09:03:12;20.50;99.90
11079;DHT22;5592;49.234;7.268;2023-05-23T09:05:38;20.30;99.90
11079;DHT22;5592;49.234;7.268;2023-05-23T09:08:04;20.20;99.90
11079;DHT22;5592;49.234;7.268;2023-05-23T09:10:30;20.10;99.90
11079;DHT22;5592;49.234;7.268;2023-05-23T09:12:55;20.00;99.90
11079;DHT22;5592;49.234;7.268;2023-05-23T09:15:22;20.10;99.90
11079;DHT22;5592;49.234;7.268;2023-05-23T09:17:48;20.10;99.90
11079;DHT22;5592;49.234;7.268;2023-05-23T09:20:15;20.00;99.90
11079;DHT22;5592;49.234;7.268;2023-05-23T09:22:46;19.90;99.90
11079;DHT22;5592;49.234;7.268;2023-05-23T09:25:14;19.90;99.90
11079;DHT22;5592;49.234;7.268;2023-05-23T09:27:41;20.00;99.90
11079;DHT22;5592;49.234;7.268;2023-05-23T09:30:09;20.30;99.90
11079;DHT22;5592;49.234;7.268;2023-05-23T09:32:35;20.70;99.90
11079;DHT22;5592;49.234;7.268;2023-05-23T09:35:03;21.10;99.90
11079;DHT22;5592;49.234;7.268;2023-05-23T09:39:56;21.80;99.90
11079;DHT22;5592;49.234;7.268;2023-05-23T09:42:22;22.30;99.90
11079;DHT22;5592;49.234;7.268;2023-05-23T09:44:48;23.40;99.90
11079;DHT22;5592;49.234;7.268;2023-05-23T09:47:15;23.80;99.90
11079;DHT22;5592;49.234;7.268;2023-05-23T09:49:45;23.50;99.90
11079;DHT22;5592;49.234;7.268;2023-05-23T09:52:12;23.20;99.90
11079;DHT22;5592;49.234;7.268;2023-05-23T09:54:42;23.30;99.90
11079;DHT22;5592;49.234;7.268;2023-05-23T09:57:09;23.20;99.90
11079;DHT22;5592;49.234;7.268;2023-05-23T09:59:39;23.10;99.90
11079;DHT22;5592;49.234;7.268;2023-05-23T10:02:07;23.10;99.90
11079;DHT22;5592;49.234;7.268;2023-05-23T10:04:38;22.60;99.90
11079;DHT22;5592;49.234;7.268;2023-05-23T10:07:13;22.30;99.90
11079;DHT22;5592;49.234;7.268;2023-05-23T10:09:42;22.10;99.90
11079;DHT22;5592;49.234;7.268;2023-05-23T10:12:40;21.90;99.90
11079;DHT22;5592;49.234;7.268;2023-05-23T10:15:08;21.80;99.90
11079;DHT22;5592;49.234;7.268;2023-05-23T10:18:04;21.90;99.90
11079;DHT22;5592;49.234;7.268;2023-05-23T10:20:34;22.00;99.90
11079;DHT22;5592;49.234;7.268;2023-05-23T10:23:07;21.90;99.90
11079;DHT22;5592;49.234;7.268;2023-05-23T10:25:38;21.80;99.90
11079;DHT22;5592;49.234;7.268;2023-05-23T10:28:06;21.80;99.90
11079;DHT22;5592;49.234;7.268;2023-05-23T10:30:36;21.70;99.90
11079;DHT22;5592;49.234;7.268;2023-05-23T10:33:03;21.40;99.90
11079;DHT22;5592;49.234;7.268;2023-05-23T10:43:38;21.10;99.90
11079;DHT22;5592;49.234;7.268;2023-05-23T10:46:08;20.90;99.90
11079;DHT22;5592;49.234;7.268;2023-05-23T10:48:42;21.00;99.90
11079;DHT22;5592;49.234;7.268;2023-05-23T10:51:09;20.80;99.90
11079;DHT22;5592;49.234;7.268;2023-05-23T10:53:40;20.70;99.90
11079;DHT22;5592;49.234;7.268;2023-05-23T10:56:08;20.50;99.90
11079;DHT22;5592;49.234;7.268;2023-05-23T10:58:40;20.30;99.90
11079;DHT22;5592;49.234;7.268;2023-05-23T11:01:08;20.20;99.90
11079;DHT22;5592;49.234;7.268;2023-05-23T11:06:37;20.00;99.90
11079;DHT22;5592;49.234;7.268;2023-05-23T11:09:05;20.10;99.90
11079;DHT22;5592;49.234;7.268;2023-05-23T11:12:02;20.10;99.90
11079;DHT22;5592;49.234;7.268;2023-05-23T11:17:15;20.30;99.90
11079;DHT22;5592;49.234;7.268;2023-05-23T11:20:04;20.30;99.90
11079;DHT22;5592;49.234;7.268;2023-05-23T11:22:35;20.40;99.90
11079;DHT22;5592;49.234;7.268;2023-05-23T11:25:06;20.60;99.90
11079;DHT22;5592;49.234;7.268;2023-05-23T11:27:33;20.70;99.90
11079;DHT22;5592;49.234;7.268;2023-05-23T11:30:14;20.90;99.90
11079;DHT22;5592;49.234;7.268;2023-05-23T11:32:52;21.20;99.90
11079;DHT22;5592;49.234;7.268;2023-05-23T11:35:21;21.20;99.90
11079;DHT22;5592;49.234;7.268;2023-05-23T11:37:47;21.50;99.90
11079;DHT22;5592;49.234;7.268;2023-05-23T11:40:34;21.70;99.90
11079;DHT22;5592;49.234;7.268;2023-05-23T11:43:03;21.80;99.90
11079;DHT22;5592;49.234;7.268;2023-05-23T11:48:08;22.50;99.90
11079;DHT22;5592;49.234;7.268;2023-05-23T11:50:52;22.60;99.90
11079;DHT22;5592;49.234;7.268;2023-05-23T11:53:20;23.10;99.90
11079;DHT22;5592;49.234;7.268;2023-05-23T11:55:50;23.50;99.90
11079;DHT22;5592;49.234;7.268;2023-05-23T11:58:19;23.40;99.90
11079;DHT22;5592;49.234;7.268;2023-05-23T12:00:45;23.60;99.90
11079;DHT22;5592;49.234;7.268;2023-05-23T12:03:10;23.40;99.90
11079;DHT22;5592;49.234;7.268;2023-05-23T12:05:36;23.30;99.90
11079;DHT22;5592;49.234;7.268;2023-05-23T12:08:03;23.30;99.90
11079;DHT22;5592;49.234;7.268;2023-05-23T12:10:31;23.30;99.90
11079;DHT22;5592;49.234;7.268;2023-05-23T12:12:57;22.90;99.90
11079;DHT22;5592;49.234;7.268;2023-05-23T12:15:26;22.70;99.90
11079;DHT22;5592;49.234;7.268;2023-05-23T12:17:53;22.50;99.90
11079;DHT22;5592;49.234;7.268;2023-05-23T12:20:19;22.30;99.90
11079;DHT22;5592;49.234;7.268;2023-05-23T12:23:05;22.30;99.90
11079;DHT22;5592;49.234;7.268;2023-05-23T12:25:39;22.10;99.90
11079;DHT22;5592;49.234;7.268;2023-05-23T12:28:06;21.80;99.90
11079;DHT22;5592;49.234;7.268;2023-05-23T12:30:40;21.60;99.90
11079;DHT22;5592;49.234;7.268;2023-05-23T12:33:09;21.50;99.90
11079;DHT22;5592;49.234;7.268;2023-05-23T12:35:36;21.70;99.90
11079;DHT22;5592;49.234;7.268;2023-05-23T12:38:04;21.90;99.90
11079;DHT22;5592;49.234;7.268;2023-05-23T12:40:31;22.00;99.90
11079;DHT22;5592;49.234;7.268;2023-05-23T12:42:57;22.20;99.90
11079;DHT22;5592;49.234;7.268;2023-05-23T12:45:33;22.30;99.90
11079;DHT22;5592;49.234;7.268;2023-05-23T12:48:01;22.40;99.90
11079;DHT22;5592;49.234;7.268;2023-05-23T12:50:27;22.30;99.90
11079;DHT22;5592;49.234;7.268;2023-05-23T12:52:52;22.30;99.90
11079;DHT22;5592;49.234;7.268;2023-05-23T12:55:18;22.30;99.90
11079;DHT22;5592;49.234;7.268;2023-05-23T12:57:43;22.40;99.90
11079;DHT22;5592;49.234;7.268;2023-05-23T13:00:13;22.60;99.90
11079;DHT22;5592;49.234;7.268;2023-05-23T13:02:38;22.70;99.90
11079;DHT22;5592;49.234;7.268;2023-05-23T13:05:04;22.70;99.90
11079;DHT22;5592;49.234;7.268;2023-05-23T13:07:30;22.90;99.90
11079;DHT22;5592;49.234;7.268;2023-05-23T13:09:56;22.80;99.90
11079;DHT22;5592;49.234;7.268;2023-05-23T13:12:21;22.80;99.90
11079;DHT22;5592;49.234;7.268;2023-05-23T13:14:48;22.60;99.90
11079;DHT22;5592;49.234;7.268;2023-05-23T13:17:14;22.70;99.90
11079;DHT22;5592;49.234;7.268;2023-05-23T13:19:39;22.70;99.90
11079;DHT22;5592;49.234;7.268;2023-05-23T13:22:06;22.50;99.90
11079;DHT22;5592;49.234;7.268;2023-05-23T13:24:35;22.40;99.90
11079;DHT22;5592;49.234;7.268;2023-05-23T13:27:02;22.30;99.90
11079;DHT22;5592;49.234;7.268;2023-05-23T13:29:27;22.10;99.90
11079;DHT22;5592;49.234;7.268;2023-05-23T13:31:53;22.00;99.90
11079;DHT22;5592;49.234;7.268;2023-05-23T13:34:18;21.80;99.90
11079;DHT22;5592;49.234;7.268;2023-05-23T13:36:44;21.70;99.90
11079;DHT22;5592;49.234;7.268;2023-05-23T13:39:10;21.40;99.90
11079;DHT22;5592;49.234;7.268;2023-05-23T13:41:35;21.30;99.90
11079;DHT22;5592;49.234;7.268;2023-05-23T13:44:01;21.40;99.90
11079;DHT22;5592;49.234;7.268;2023-05-23T13:46:26;21.60;99.90
11079;DHT22;5592;49.234;7.268;2023-05-23T13:48:52;21.90;99.90
11079;DHT22;5592;49.234;7.268;2023-05-23T13:51:17;22.10;99.90
11079;DHT22;5592;49.234;7.268;2023-05-23T13:53:44;22.20;99.90
11079;DHT22;5592;49.234;7.268;2023-05-23T13:56:10;22.30;99.90
11079;DHT22;5592;49.234;7.268;2023-05-23T13:58:35;22.60;99.90
11079;DHT22;5592;49.234;7.268;2023-05-23T14:01:01;22.80;99.90
11079;DHT22;5592;49.234;7.268;2023-05-23T14:03:27;23.10;99.90
11079;DHT22;5592;49.234;7.268;2023-05-23T14:05:52;23.10;99.90
11079;DHT22;5592;49.234;7.268;2023-05-23T14:08:18;23.10;99.90
11079;DHT22;5592;49.234;7.268;2023-05-23T14:10:44;23.10;99.90
11079;DHT22;5592;49.234;7.268;2023-05-23T14:13:09;22.90;99.90
11079;DHT22;5592;49.234;7.268;2023-05-23T14:15:36;22.80;99.90
11079;DHT22;5592;49.234;7.268;2023-05-23T14:18:02;22.60;99.90
11079;DHT22;5592;49.234;7.268;2023-05-23T14:20:28;22.70;99.90
11079;DHT22;5592;49.234;7.268;2023-05-23T14:22:54;22.60;99.90
11079;DHT22;5592;49.234;7.268;2023-05-23T14:25:20;22.30;99.90
11079;DHT22;5592;49.234;7.268;2023-05-23T14:27:46;22.20;99.90
11079;DHT22;5592;49.234;7.268;2023-05-23T14:30:12;22.30;99.90
11079;DHT22;5592;49.234;7.268;2023-05-23T14:32:38;22.20;99.90
11079;DHT22;5592;49.234;7.268;2023-05-23T14:35:09;22.30;99.90
11079;DHT22;5592;49.234;7.268;2023-05-23T14:37:35;22.10;99.90
11079;DHT22;5592;49.234;7.268;2023-05-23T14:40:02;22.20;99.90
11079;DHT22;5592;49.234;7.268;2023-05-23T14:42:27;22.20;99.90
11079;DHT22;5592;49.234;7.268;2023-05-23T14:44:53;22.20;99.90
11079;DHT22;5592;49.234;7.268;2023-05-23T14:47:19;22.20;99.90
11079;DHT22;5592;49.234;7.268;2023-05-23T14:49:45;22.00;99.90
11079;DHT22;5592;49.234;7.268;2023-05-23T14:52:11;21.80;99.90
11079;DHT22;5592;49.234;7.268;2023-05-23T14:54:37;21.60;99.90
11079;DHT22;5592;49.234;7.268;2023-05-23T14:57:05;21.50;99.90
11079;DHT22;5592;49.234;7.268;2023-05-23T14:59:31;21.20;99.90
11079;DHT22;5592;49.234;7.268;2023-05-23T15:01:57;21.00;99.90
11079;DHT22;5592;49.234;7.268;2023-05-23T15:04:23;20.90;99.90
11079;DHT22;5592;49.234;7.268;2023-05-23T15:06:48;21.10;99.90
11079;DHT22;5592;49.234;7.268;2023-05-23T15:09:15;21.20;99.90
11079;DHT22;5592;49.234;7.268;2023-05-23T15:11:43;21.20;99.90
11079;DHT22;5592;49.234;7.268;2023-05-23T15:14:09;21.20;99.90
11079;DHT22;5592;49.234;7.268;2023-05-23T15:16:35;21.20;99.90
11079;DHT22;5592;49.234;7.268;2023-05-23T15:19:01;21.10;99.90
11079;DHT22;5592;49.234;7.268;2023-05-23T15:21:27;21.00;99.90
11079;DHT22;5592;49.234;7.268;2023-05-23T15:23:52;21.10;99.90
11079;DHT22;5592;49.234;7.268;2023-05-23T15:26:18;20.80;99.90
11079;DHT22;5592;49.234;7.268;2023-05-23T15:28:44;20.60;99.90
11079;DHT22;5592;49.234;7.268;2023-05-23T15:31:09;20.10;99.90
11079;DHT22;5592;49.234;7.268;2023-05-23T15:33:35;20.00;99.90
11079;DHT22;5592;49.234;7.268;2023-05-23T15:36:00;19.90;99.90
11079;DHT22;5592;49.234;7.268;2023-05-23T15:38:26;20.10;99.90
11079;DHT22;5592;49.234;7.268;2023-05-23T15:40:52;20.30;99.90
11079;DHT22;5592;49.234;7.268;2023-05-23T15:43:19;20.30;99.90
11079;DHT22;5592;49.234;7.268;2023-05-23T15:45:44;20.00;99.90
11079;DHT22;5592;49.234;7.268;2023-05-23T15:48:10;19.80;99.90
11079;DHT22;5592;49.234;7.268;2023-05-23T15:50:36;19.80;99.90
11079;DHT22;5592;49.234;7.268;2023-05-23T15:53:02;19.50;99.90
11079;DHT22;5592;49.234;7.268;2023-05-23T15:55:27;19.40;99.90
11079;DHT22;5592;49.234;7.268;2023-05-23T15:57:53;19.40;99.90
11079;DHT22;5592;49.234;7.268;2023-05-23T16:00:19;19.30;99.90
11079;DHT22;5592;49.234;7.268;2023-05-23T16:02:44;19.20;99.90
11079;DHT22;5592;49.234;7.268;2023-05-23T16:05:10;19.20;99.90
11079;DHT22;5592;49.234;7.268;2023-05-23T16:07:35;19.30;99.90